Time;durP1;ratioP1;P1;durP2;ratioP2;P2;SDS_P1;SDS_P2;PMS_P1;PMS_P2;Temp;Humidity;BMP_temperature;BMP_pressure;BME280_temperature;BME280_humidity;BME280_pressure;Samples;Min_cycle;Max_cycle;Signal;HPM_P1;HPM_P2
2022/12/15 16:23:31;;;;;;;58.53;29.60;;;-2.80;99.90;;;;;;5041480;28;20902;-63
2022/12/15 16:25:59;;;;;;;52.92;27.00;;;-2.90;99.90;;;;;;5022898;28;20428;-62
2022/12/15 16:28:29;;;;;;;49.45;26.40;;;-2.90;99.90;;;;;;5035998;28;20037;-63
2022/12/15 16:31:00;;;;;;;48.77;26.20;;;-2.80;99.90;;;;;;5028470;28;20022;-63
2022/12/15 16:33:27;;;;;;;52.67;26.70;;;-2.80;99.90;;;;;;5026067;28;20745;-64
2022/12/15 16:35:53;;;;;;;56.45;30.63;;;-2.70;99.90;;;;;;5044397;28;20382;-64
2022/12/15 16:38:26;;;;;;;49.63;25.95;;;-2.70;99.90;;;;;;5034272;28;20033;-65
2022/12/15 21:02:34;;;;;;;50.03;24.88;;;-2.50;99.90;;;;;;5098721;27;20421;-61
2022/12/15 21:05:02;;;;;;;56.05;25.10;;;-2.60;99.90;;;;;;5096577;28;20021;-64
2022/12/15 21:07:28;;;;;;;53.45;26.35;;;-2.60;99.90;;;;;;5090310;28;20060;-67
2022/12/15 21:09:53;;;;;;;51.97;25.77;;;-2.60;99.90;;;;;;5085237;28;20113;-65
2022/12/15 21:12:23;;;;;;;46.97;22.98;;;-2.60;99.90;;;;;;5087954;28;20020;-64
2022/12/15 21:14:49;;;;;;;52.15;24.70;;;-2.60;99.90;;;;;;5087111;28;20384;-66
2022/12/15 21:17:17;;;;;;;52.75;26.60;;;-2.50;99.90;;;;;;5082507;28;20033;-65
2022/12/15 21:19:43;;;;;;;52.20;27.90;;;-2.50;99.90;;;;;;5077135;28;20039;-64
2022/12/15 21:22:29;;;;;;;54.17;28.48;;;-2.40;99.90;;;;;;5087618;28;20488;-66
2022/12/15 21:24:57;;;;;;;74.20;32.50;;;-2.20;99.90;;;;;;5087257;28;20125;-64
2022/12/15 21:27:23;;;;;;;77.57;34.17;;;-2.20;99.90;;;;;;5087039;28;20387;-64
2022/12/15 21:29:49;;;;;;;63.50;28.85;;;-2.00;99.90;;;;;;5084907;28;20111;-63
2022/12/15 21:32:14;;;;;;;63.85;29.77;;;-2.00;99.90;;;;;;5089955;28;20028;-63
2022/12/15 21:34:40;;;;;;;56.30;28.58;;;-2.00;99.90;;;;;;5086743;28;20108;-63
2022/12/15 21:37:27;;;;;;;55.88;29.17;;;-1.90;99.90;;;;;;5087409;28;20070;-65
2022/12/15 21:39:53;;;;;;;52.45;27.50;;;-1.90;99.90;;;;;;5073471;28;20016;-63
2022/12/15 21:42:19;;;;;;;51.25;29.13;;;-1.90;99.90;;;;;;5105960;28;20486;-65
2022/12/15 21:44:46;;;;;;;55.38;28.98;;;-1.90;99.90;;;;;;5108135;28;20024;-64
2022/12/15 21:49:13;;;;;;;56.13;27.38;;;-1.90;99.90;;;;;;5089694;28;20085;-65
2022/12/15 21:50:11;;;;;;;56.40;29.33;;;-1.90;99.90;;;;;;5067533;28;20045;-65
2022/12/15 21:52:37;;;;;;;51.15;27.33;;;-1.80;99.90;;;;;;5066588;28;20017;-66
2022/12/15 21:55:13;;;;;;;55.72;28.55;;;-1.80;99.90;;;;;;5067194;28;20481;-65
2022/12/15 21:57:38;;;;;;;57.55;28.83;;;-1.80;99.90;;;;;;5080517;28;20031;-66
2022/12/15 22:00:09;;;;;;;53.53;27.95;;;-1.80;99.90;;;;;;5106694;28;20380;-66
2022/12/15 22:02:35;;;;;;;54.97;29.05;;;-1.80;99.90;;;;;;5104522;28;20081;-65
2022/12/15 22:05:00;;;;;;;48.22;26.95;;;-1.80;99.90;;;;;;5108079;28;20091;-66
2022/12/15 22:07:26;;;;;;;52.63;26.77;;;-1.70;99.90;;;;;;5104944;28;20032;-67
2022/12/15 22:09:52;;;;;;;51.63;27.55;;;-1.60;99.90;;;;;;5107300;28;20546;-66
2022/12/15 22:12:20;;;;;;;45.10;24.38;;;-1.60;99.90;;;;;;5090434;28;20070;-65
2022/12/15 22:14:46;;;;;;;42.28;22.67;;;-1.50;99.90;;;;;;5071488;28;20103;-66
2022/12/15 22:17:16;;;;;;;46.70;24.90;;;-1.50;99.90;;;;;;5070935;28;20256;-66
2022/12/15 22:19:42;;;;;;;52.05;26.33;;;-1.40;99.90;;;;;;5072502;28;20056;-67
2022/12/15 22:22:07;;;;;;;58.53;28.50;;;-1.40;99.90;;;;;;5073499;28;20068;-66
